sensor_id;sensor_type;location;lat;lon;timestamp;P1;durP1;ratioP1;P2;durP2;ratioP2
19193;SDS011;9729;52.296;13.260;2024-02-28T00:00:00;86.43;;;29.27;;
19193;SDS011;9729;52.296;13.260;2024-02-28T00:02:28;80.33;;;28.43;;
19193;SDS011;9729;52.296;13.260;2024-02-28T00:04:56;86.37;;;27.33;;
19193;SDS011;9729;52.296;13.260;2024-02-28T00:07:24;65.17;;;26.77;;
19193;SDS011;9729;52.296;13.260;2024-02-28T00:09:50;81.63;;;29.53;;
19193;SDS011;9729;52.296;13.260;2024-02-28T00:12:16;75.40;;;28.87;;
19193;SDS011;9729;52.296;13.260;2024-02-28T00:14:43;84.07;;;28.60;;
19193;SDS011;9729;52.296;13.260;2024-02-28T00:17:09;75.30;;;28.57;;
19193;SDS011;9729;52.296;13.260;2024-02-28T00:19:35;70.63;;;27.97;;
19193;SDS011;9729;52.296;13.260;2024-02-28T00:22:03;86.27;;;28.30;;
19193;SDS011;9729;52.296;13.260;2024-02-28T00:24:29;81.57;;;29.20;;
19193;SDS011;9729;52.296;13.260;2024-02-28T00:26:55;67.43;;;28.83;;
19193;SDS011;9729;52.296;13.260;2024-02-28T00:29:22;76.50;;;29.13;;
19193;SDS011;9729;52.296;13.260;2024-02-28T00:31:48;73.17;;;28.00;;
19193;SDS011;9729;52.296;13.260;2024-02-28T00:34:14;73.50;;;27.73;;
19193;SDS011;9729;52.296;13.260;2024-02-28T00:36:41;80.63;;;28.20;;
19193;SDS011;9729;52.296;13.260;2024-02-28T00:39:10;76.43;;;30.07;;
19193;SDS011;9729;52.296;13.260;2024-02-28T00:41:36;80.13;;;30.30;;
19193;SDS011;9729;52.296;13.260;2024-02-28T00:44:03;69.53;;;29.57;;
19193;SDS011;9729;52.296;13.260;2024-02-28T00:46:29;66.97;;;29.60;;
19193;SDS011;9729;52.296;13.260;2024-02-28T00:48:55;66.23;;;26.70;;
19193;SDS011;9729;52.296;13.260;2024-02-28T00:51:22;76.50;;;29.73;;
19193;SDS011;9729;52.296;13.260;2024-02-28T00:53:48;80.83;;;29.10;;
19193;SDS011;9729;52.296;13.260;2024-02-28T00:56:16;84.90;;;30.23;;
19193;SDS011;9729;52.296;13.260;2024-02-28T00:58:43;73.40;;;27.63;;
19193;SDS011;9729;52.296;13.260;2024-02-28T01:01:10;95.97;;;29.63;;
19193;SDS011;9729;52.296;13.260;2024-02-28T01:03:36;90.90;;;29.80;;
19193;SDS011;9729;52.296;13.260;2024-02-28T01:06:03;76.70;;;29.00;;
19193;SDS011;9729;52.296;13.260;2024-02-28T01:08:30;75.63;;;29.13;;
19193;SDS011;9729;52.296;13.260;2024-02-28T01:10:56;79.23;;;28.00;;
19193;SDS011;9729;52.296;13.260;2024-02-28T01:13:25;68.03;;;26.90;;
19193;SDS011;9729;52.296;13.260;2024-02-28T01:15:51;79.43;;;29.47;;
19193;SDS011;9729;52.296;13.260;2024-02-28T01:18:19;74.53;;;28.23;;
19193;SDS011;9729;52.296;13.260;2024-02-28T01:20:45;85.20;;;29.70;;
19193;SDS011;9729;52.296;13.260;2024-02-28T01:23:11;72.83;;;27.53;;
19193;SDS011;9729;52.296;13.260;2024-02-28T01:25:38;73.17;;;28.00;;
19193;SDS011;9729;52.296;13.260;2024-02-28T01:28:04;70.43;;;26.10;;
19193;SDS011;9729;52.296;13.260;2024-02-28T01:30:32;73.27;;;26.20;;
19193;SDS011;9729;52.296;13.260;2024-02-28T01:32:58;72.37;;;27.87;;
19193;SDS011;9729;52.296;13.260;2024-02-28T01:35:25;75.37;;;28.80;;
19193;SDS011;9729;52.296;13.260;2024-02-28T01:37:51;75.93;;;26.90;;
19193;SDS011;9729;52.296;13.260;2024-02-28T01:40:17;78.40;;;26.70;;
19193;SDS011;9729;52.296;13.260;2024-02-28T01:42:44;72.40;;;28.43;;
19193;SDS011;9729;52.296;13.260;2024-02-28T01:45:12;75.77;;;24.10;;
19193;SDS011;9729;52.296;13.260;2024-02-28T01:47:41;63.87;;;26.13;;
19193;SDS011;9729;52.296;13.260;2024-02-28T01:50:08;67.37;;;27.60;;
19193;SDS011;9729;52.296;13.260;2024-02-28T01:52:35;65.97;;;27.70;;
19193;SDS011;9729;52.296;13.260;2024-02-28T01:55:03;66.47;;;26.43;;
19193;SDS011;9729;52.296;13.260;2024-02-28T01:57:31;69.97;;;26.27;;
19193;SDS011;9729;52.296;13.260;2024-02-28T01:59:57;66.33;;;25.00;;
19193;SDS011;9729;52.296;13.260;2024-02-28T02:02:24;67.10;;;26.60;;
19193;SDS011;9729;52.296;13.260;2024-02-28T02:04:52;80.77;;;26.77;;
19193;SDS011;9729;52.296;13.260;2024-02-28T02:07:19;65.60;;;26.23;;
19193;SDS011;9729;52.296;13.260;2024-02-28T02:09:45;71.27;;;27.60;;
19193;SDS011;9729;52.296;13.260;2024-02-28T02:12:12;75.73;;;26.17;;
19193;SDS011;9729;52.296;13.260;2024-02-28T02:14:38;70.50;;;27.30;;
19193;SDS011;9729;52.296;13.260;2024-02-28T02:17:04;75.80;;;27.57;;
19193;SDS011;9729;52.296;13.260;2024-02-28T02:19:30;64.37;;;25.43;;
19193;SDS011;9729;52.296;13.260;2024-02-28T02:21:58;78.63;;;27.67;;
19193;SDS011;9729;52.296;13.260;2024-02-28T02:24:26;74.27;;;25.93;;
19193;SDS011;9729;52.296;13.260;2024-02-28T02:26:54;80.43;;;27.07;;
19193;SDS011;9729;52.296;13.260;2024-02-28T02:29:21;70.97;;;26.30;;
19193;SDS011;9729;52.296;13.260;2024-02-28T02:31:47;85.70;;;27.67;;
19193;SDS011;9729;52.296;13.260;2024-02-28T02:34:13;72.97;;;27.90;;
19193;SDS011;9729;52.296;13.260;2024-02-28T02:36:40;74.87;;;27.37;;
19193;SDS011;9729;52.296;13.260;2024-02-28T02:39:06;74.60;;;28.43;;
19193;SDS011;9729;52.296;13.260;2024-02-28T02:41:34;74.60;;;28.97;;
19193;SDS011;9729;52.296;13.260;2024-02-28T02:44:00;79.43;;;26.63;;
19193;SDS011;9729;52.296;13.260;2024-02-28T02:46:27;64.90;;;26.47;;
19193;SDS011;9729;52.296;13.260;2024-02-28T02:48:53;73.57;;;25.43;;
19193;SDS011;9729;52.296;13.260;2024-02-28T02:51:19;71.10;;;27.63;;
19193;SDS011;9729;52.296;13.260;2024-02-28T02:53:46;68.40;;;26.10;;
19193;SDS011;9729;52.296;13.260;2024-02-28T02:56:12;67.10;;;23.67;;
19193;SDS011;9729;52.296;13.260;2024-02-28T02:58:40;66.40;;;24.77;;
19193;SDS011;9729;52.296;13.260;2024-02-28T03:01:06;66.23;;;23.70;;
19193;SDS011;9729;52.296;13.260;2024-02-28T03:03:33;57.67;;;22.43;;
19193;SDS011;9729;52.296;13.260;2024-02-28T03:06:00;59.90;;;21.90;;
19193;SDS011;9729;52.296;13.260;2024-02-28T03:08:26;54.03;;;21.40;;
19193;SDS011;9729;52.296;13.260;2024-02-28T03:10:53;49.93;;;20.33;;
19193;SDS011;9729;52.296;13.260;2024-02-28T03:13:19;55.63;;;22.10;;
19193;SDS011;9729;52.296;13.260;2024-02-28T03:15:47;49.03;;;20.93;;
19193;SDS011;9729;52.296;13.260;2024-02-28T03:18:13;50.70;;;21.90;;
19193;SDS011;9729;52.296;13.260;2024-02-28T03:20:40;56.43;;;22.43;;
19193;SDS011;9729;52.296;13.260;2024-02-28T03:23:06;51.87;;;19.90;;
19193;SDS011;9729;52.296;13.260;2024-02-28T03:25:32;43.93;;;17.90;;
19193;SDS011;9729;52.296;13.260;2024-02-28T03:27:59;47.13;;;18.10;;
19193;SDS011;9729;52.296;13.260;2024-02-28T03:30:27;52.00;;;21.50;;
19193;SDS011;9729;52.296;13.260;2024-02-28T03:32:54;54.47;;;19.13;;
19193;SDS011;9729;52.296;13.260;2024-02-28T03:35:21;50.33;;;19.30;;
19193;SDS011;9729;52.296;13.260;2024-02-28T03:37:47;50.50;;;18.63;;
19193;SDS011;9729;52.296;13.260;2024-02-28T03:40:13;54.60;;;19.27;;
19193;SDS011;9729;52.296;13.260;2024-02-28T03:42:40;53.07;;;21.03;;
19193;SDS011;9729;52.296;13.260;2024-02-28T03:45:07;44.17;;;19.10;;
19193;SDS011;9729;52.296;13.260;2024-02-28T03:47:33;45.07;;;19.27;;
19193;SDS011;9729;52.296;13.260;2024-02-28T03:50:01;51.53;;;21.53;;
19193;SDS011;9729;52.296;13.260;2024-02-28T03:52:28;48.30;;;18.93;;
19193;SDS011;9729;52.296;13.260;2024-02-28T03:54:55;53.87;;;19.63;;
19193;SDS011;9729;52.296;13.260;2024-02-28T03:57:22;48.13;;;19.30;;
19193;SDS011;9729;52.296;13.260;2024-02-28T03:59:48;46.53;;;18.80;;
19193;SDS011;9729;52.296;13.260;2024-02-28T04:02:15;51.13;;;20.20;;
19193;SDS011;9729;52.296;13.260;2024-02-28T04:04:41;49.93;;;18.97;;
19193;SDS011;9729;52.296;13.260;2024-02-28T04:07:09;48.67;;;19.47;;
19193;SDS011;9729;52.296;13.260;2024-02-28T04:09:35;43.73;;;17.47;;
19193;SDS011;9729;52.296;13.260;2024-02-28T04:12:02;44.97;;;19.60;;
19193;SDS011;9729;52.296;13.260;2024-02-28T04:14:29;46.10;;;20.23;;
19193;SDS011;9729;52.296;13.260;2024-02-28T04:16:55;40.77;;;17.57;;
19193;SDS011;9729;52.296;13.260;2024-02-28T04:19:21;41.80;;;19.53;;
19193;SDS011;9729;52.296;13.260;2024-02-28T04:21:48;40.27;;;19.90;;
19193;SDS011;9729;52.296;13.260;2024-02-28T04:24:15;42.20;;;19.03;;
19193;SDS011;9729;52.296;13.260;2024-02-28T04:26:41;40.07;;;18.07;;
19193;SDS011;9729;52.296;13.260;2024-02-28T04:29:08;44.17;;;18.50;;
19193;SDS011;9729;52.296;13.260;2024-02-28T04:31:38;37.37;;;18.50;;
19193;SDS011;9729;52.296;13.260;2024-02-28T04:34:05;39.07;;;17.73;;
19193;SDS011;9729;52.296;13.260;2024-02-28T04:36:31;34.23;;;16.87;;
19193;SDS011;9729;52.296;13.260;2024-02-28T04:38:58;38.03;;;18.33;;
19193;SDS011;9729;52.296;13.260;2024-02-28T04:41:27;36.23;;;17.43;;
19193;SDS011;9729;52.296;13.260;2024-02-28T04:43:53;46.47;;;18.13;;
19193;SDS011;9729;52.296;13.260;2024-02-28T04:46:20;38.73;;;18.57;;
19193;SDS011;9729;52.296;13.260;2024-02-28T04:48:46;40.00;;;18.73;;
19193;SDS011;9729;52.296;13.260;2024-02-28T04:51:14;35.30;;;19.07;;
19193;SDS011;9729;52.296;13.260;2024-02-28T04:53:41;41.40;;;19.00;;
19193;SDS011;9729;52.296;13.260;2024-02-28T04:56:07;39.27;;;17.43;;
19193;SDS011;9729;52.296;13.260;2024-02-28T04:58:36;36.63;;;18.37;;
19193;SDS011;9729;52.296;13.260;2024-02-28T05:01:02;34.00;;;16.73;;
19193;SDS011;9729;52.296;13.260;2024-02-28T05:03:29;35.80;;;17.57;;
19193;SDS011;9729;52.296;13.260;2024-02-28T05:05:55;35.20;;;17.93;;
19193;SDS011;9729;52.296;13.260;2024-02-28T05:08:21;33.47;;;17.33;;
19193;SDS011;9729;52.296;13.260;2024-02-28T05:10:49;34.30;;;17.90;;
19193;SDS011;9729;52.296;13.260;2024-02-28T05:13:15;35.43;;;17.77;;
19193;SDS011;9729;52.296;13.260;2024-02-28T05:15:43;35.57;;;16.40;;
19193;SDS011;9729;52.296;13.260;2024-02-28T05:18:09;34.93;;;16.03;;
19193;SDS011;9729;52.296;13.260;2024-02-28T05:20:36;32.97;;;16.33;;
19193;SDS011;9729;52.296;13.260;2024-02-28T05:23:02;33.53;;;16.23;;
19193;SDS011;9729;52.296;13.260;2024-02-28T05:25:29;37.33;;;15.60;;
19193;SDS011;9729;52.296;13.260;2024-02-28T05:27:55;32.37;;;16.10;;
19193;SDS011;9729;52.296;13.260;2024-02-28T05:30:22;33.43;;;16.33;;
19193;SDS011;9729;52.296;13.260;2024-02-28T05:32:49;30.93;;;14.77;;
19193;SDS011;9729;52.296;13.260;2024-02-28T05:35:16;26.43;;;14.17;;
19193;SDS011;9729;52.296;13.260;2024-02-28T05:37:43;35.00;;;15.73;;
19193;SDS011;9729;52.296;13.260;2024-02-28T05:40:09;30.03;;;14.03;;
19193;SDS011;9729;52.296;13.260;2024-02-28T05:42:37;22.60;;;13.57;;
19193;SDS011;9729;52.296;13.260;2024-02-28T05:45:05;23.63;;;12.90;;
19193;SDS011;9729;52.296;13.260;2024-02-28T05:47:30;25.60;;;13.00;;
19193;SDS011;9729;52.296;13.260;2024-02-28T05:49:58;24.33;;;13.63;;
19193;SDS011;9729;52.296;13.260;2024-02-28T05:52:25;24.73;;;12.93;;
19193;SDS011;9729;52.296;13.260;2024-02-28T05:54:52;24.57;;;13.37;;
19193;SDS011;9729;52.296;13.260;2024-02-28T05:57:18;25.43;;;13.63;;
19193;SDS011;9729;52.296;13.260;2024-02-28T05:59:44;22.73;;;12.13;;
19193;SDS011;9729;52.296;13.260;2024-02-28T06:02:11;21.50;;;12.43;;
19193;SDS011;9729;52.296;13.260;2024-02-28T06:04:37;23.40;;;12.33;;
19193;SDS011;9729;52.296;13.260;2024-02-28T06:07:05;23.13;;;12.40;;
19193;SDS011;9729;52.296;13.260;2024-02-28T06:09:32;27.50;;;13.93;;
19193;SDS011;9729;52.296;13.260;2024-02-28T06:11:58;22.57;;;13.43;;
19193;SDS011;9729;52.296;13.260;2024-02-28T06:14:26;22.93;;;12.37;;
19193;SDS011;9729;52.296;13.260;2024-02-28T06:16:53;24.80;;;12.43;;
19193;SDS011;9729;52.296;13.260;2024-02-28T06:19:19;21.93;;;11.73;;
19193;SDS011;9729;52.296;13.260;2024-02-28T06:21:45;26.13;;;14.23;;
19193;SDS011;9729;52.296;13.260;2024-02-28T06:24:13;20.77;;;12.37;;
19193;SDS011;9729;52.296;13.260;2024-02-28T06:26:39;22.77;;;13.37;;
19193;SDS011;9729;52.296;13.260;2024-02-28T06:29:06;24.27;;;13.03;;
19193;SDS011;9729;52.296;13.260;2024-02-28T06:31:33;19.93;;;11.87;;
19193;SDS011;9729;52.296;13.260;2024-02-28T06:33:59;23.23;;;12.57;;
19193;SDS011;9729;52.296;13.260;2024-02-28T06:36:27;21.03;;;12.07;;
19193;SDS011;9729;52.296;13.260;2024-02-28T06:38:53;25.73;;;13.53;;
19193;SDS011;9729;52.296;13.260;2024-02-28T06:41:21;24.33;;;12.50;;
19193;SDS011;9729;52.296;13.260;2024-02-28T06:43:47;23.07;;;13.00;;
19193;SDS011;9729;52.296;13.260;2024-02-28T06:46:14;30.60;;;15.83;;
19193;SDS011;9729;52.296;13.260;2024-02-28T06:48:40;27.53;;;15.60;;
19193;SDS011;9729;52.296;13.260;2024-02-28T06:51:06;32.87;;;16.10;;
19193;SDS011;9729;52.296;13.260;2024-02-28T06:53:32;30.83;;;15.70;;
19193;SDS011;9729;52.296;13.260;2024-02-28T06:56:02;35.90;;;18.33;;
19193;SDS011;9729;52.296;13.260;2024-02-28T06:58:30;27.60;;;15.43;;
19193;SDS011;9729;52.296;13.260;2024-02-28T07:00:56;26.90;;;15.73;;
19193;SDS011;9729;52.296;13.260;2024-02-28T07:03:23;34.30;;;16.43;;
19193;SDS011;9729;52.296;13.260;2024-02-28T07:05:49;27.03;;;15.23;;
19193;SDS011;9729;52.296;13.260;2024-02-28T07:08:17;28.90;;;15.43;;
19193;SDS011;9729;52.296;13.260;2024-02-28T07:10:43;31.10;;;16.57;;
19193;SDS011;9729;52.296;13.260;2024-02-28T07:13:12;32.10;;;16.57;;
19193;SDS011;9729;52.296;13.260;2024-02-28T07:15:40;32.50;;;15.70;;
19193;SDS011;9729;52.296;13.260;2024-02-28T07:18:06;31.07;;;14.87;;
19193;SDS011;9729;52.296;13.260;2024-02-28T07:20:33;29.03;;;15.07;;
19193;SDS011;9729;52.296;13.260;2024-02-28T07:22:59;28.87;;;15.67;;
19193;SDS011;9729;52.296;13.260;2024-02-28T07:25:26;30.87;;;14.67;;
19193;SDS011;9729;52.296;13.260;2024-02-28T07:27:52;21.30;;;12.30;;
19193;SDS011;9729;52.296;13.260;2024-02-28T07:30:19;23.77;;;13.23;;
19193;SDS011;9729;52.296;13.260;2024-02-28T07:32:46;26.20;;;15.07;;
19193;SDS011;9729;52.296;13.260;2024-02-28T07:35:13;25.47;;;15.30;;
19193;SDS011;9729;52.296;13.260;2024-02-28T07:37:40;29.67;;;13.63;;
19193;SDS011;9729;52.296;13.260;2024-02-28T07:40:07;31.60;;;17.37;;
19193;SDS011;9729;52.296;13.260;2024-02-28T07:42:33;29.40;;;15.57;;
19193;SDS011;9729;52.296;13.260;2024-02-28T07:45:00;33.47;;;14.83;;
19193;SDS011;9729;52.296;13.260;2024-02-28T07:47:27;31.93;;;14.77;;
19193;SDS011;9729;52.296;13.260;2024-02-28T07:49:55;26.23;;;12.87;;
19193;SDS011;9729;52.296;13.260;2024-02-28T07:52:21;35.47;;;16.37;;
19193;SDS011;9729;52.296;13.260;2024-02-28T07:54:48;29.90;;;15.40;;
19193;SDS011;9729;52.296;13.260;2024-02-28T07:57:14;29.00;;;15.60;;
19193;SDS011;9729;52.296;13.260;2024-02-28T07:59:40;33.43;;;15.43;;
19193;SDS011;9729;52.296;13.260;2024-02-28T08:02:07;29.53;;;14.17;;
19193;SDS011;9729;52.296;13.260;2024-02-28T08:04:34;24.03;;;13.27;;
19193;SDS011;9729;52.296;13.260;2024-02-28T08:07:02;27.70;;;14.70;;
19193;SDS011;9729;52.296;13.260;2024-02-28T08:09:29;26.37;;;13.60;;
19193;SDS011;9729;52.296;13.260;2024-02-28T08:11:55;26.03;;;12.77;;
19193;SDS011;9729;52.296;13.260;2024-02-28T08:14:23;23.53;;;13.20;;
19193;SDS011;9729;52.296;13.260;2024-02-28T08:16:49;23.70;;;12.53;;
19193;SDS011;9729;52.296;13.260;2024-02-28T08:19:15;25.53;;;12.80;;
19193;SDS011;9729;52.296;13.260;2024-02-28T08:21:42;20.33;;;13.53;;
19193;SDS011;9729;52.296;13.260;2024-02-28T08:24:10;25.13;;;14.87;;
19193;SDS011;9729;52.296;13.260;2024-02-28T08:26:37;23.03;;;12.63;;
19193;SDS011;9729;52.296;13.260;2024-02-28T08:29:04;27.67;;;14.33;;
19193;SDS011;9729;52.296;13.260;2024-02-28T08:31:30;24.57;;;13.57;;
19193;SDS011;9729;52.296;13.260;2024-02-28T08:33:56;22.33;;;12.93;;
19193;SDS011;9729;52.296;13.260;2024-02-28T08:36:23;25.63;;;14.00;;
19193;SDS011;9729;52.296;13.260;2024-02-28T08:38:49;28.80;;;13.67;;
19193;SDS011;9729;52.296;13.260;2024-02-28T08:41:18;32.43;;;16.27;;
19193;SDS011;9729;52.296;13.260;2024-02-28T08:43:44;39.20;;;18.60;;
19193;SDS011;9729;52.296;13.260;2024-02-28T08:46:13;37.87;;;18.37;;
19193;SDS011;9729;52.296;13.260;2024-02-28T08:48:40;36.57;;;18.57;;
19193;SDS011;9729;52.296;13.260;2024-02-28T08:51:07;34.73;;;17.87;;
19193;SDS011;9729;52.296;13.260;2024-02-28T08:53:33;33.23;;;18.20;;
19193;SDS011;9729;52.296;13.260;2024-02-28T08:56:00;36.77;;;19.07;;
19193;SDS011;9729;52.296;13.260;2024-02-28T08:58:27;34.17;;;17.83;;
19193;SDS011;9729;52.296;13.260;2024-02-28T09:00:54;41.13;;;20.63;;
19193;SDS011;9729;52.296;13.260;2024-02-28T09:03:20;40.97;;;20.03;;
19193;SDS011;9729;52.296;13.260;2024-02-28T09:05:47;36.57;;;19.27;;
19193;SDS011;9729;52.296;13.260;2024-02-28T09:08:14;42.20;;;19.73;;
19193;SDS011;9729;52.296;13.260;2024-02-28T09:10:40;39.47;;;17.53;;
19193;SDS011;9729;52.296;13.260;2024-02-28T09:13:06;40.17;;;19.23;;
19193;SDS011;9729;52.296;13.260;2024-02-28T09:15:34;35.10;;;19.90;;
19193;SDS011;9729;52.296;13.260;2024-02-28T09:18:01;35.47;;;18.83;;
19193;SDS011;9729;52.296;13.260;2024-02-28T09:20:27;37.87;;;19.03;;
19193;SDS011;9729;52.296;13.260;2024-02-28T09:22:53;36.40;;;18.73;;
19193;SDS011;9729;52.296;13.260;2024-02-28T09:25:20;36.53;;;19.80;;
19193;SDS011;9729;52.296;13.260;2024-02-28T09:27:46;33.87;;;18.73;;
19193;SDS011;9729;52.296;13.260;2024-02-28T09:30:13;35.70;;;19.27;;
19193;SDS011;9729;52.296;13.260;2024-02-28T09:32:41;33.17;;;17.57;;
19193;SDS011;9729;52.296;13.260;2024-02-28T09:35:08;38.00;;;19.77;;
19193;SDS011;9729;52.296;13.260;2024-02-28T09:37:36;33.77;;;18.83;;
19193;SDS011;9729;52.296;13.260;2024-02-28T09:40:03;29.87;;;17.53;;
19193;SDS011;9729;52.296;13.260;2024-02-28T09:42:30;34.00;;;19.17;;
19193;SDS011;9729;52.296;13.260;2024-02-28T09:44:56;28.40;;;17.90;;
19193;SDS011;9729;52.296;13.260;2024-02-28T09:47:26;30.83;;;17.93;;
19193;SDS011;9729;52.296;13.260;2024-02-28T09:49:53;33.90;;;18.77;;
19193;SDS011;9729;52.296;13.260;2024-02-28T09:52:23;33.77;;;18.10;;
19193;SDS011;9729;52.296;13.260;2024-02-28T09:54:49;32.30;;;18.57;;
19193;SDS011;9729;52.296;13.260;2024-02-28T09:57:16;37.27;;;19.73;;
19193;SDS011;9729;52.296;13.260;2024-02-28T09:59:42;36.27;;;17.43;;
19193;SDS011;9729;52.296;13.260;2024-02-28T10:02:09;32.67;;;17.13;;
19193;SDS011;9729;52.296;13.260;2024-02-28T10:04:36;32.30;;;17.90;;
19193;SDS011;9729;52.296;13.260;2024-02-28T10:07:11;29.87;;;16.90;;
19193;SDS011;9729;52.296;13.260;2024-02-28T10:09:39;34.00;;;18.60;;
19193;SDS011;9729;52.296;13.260;2024-02-28T10:12:05;30.03;;;16.07;;
19193;SDS011;9729;52.296;13.260;2024-02-28T10:14:32;28.80;;;16.30;;
19193;SDS011;9729;52.296;13.260;2024-02-28T10:16:58;33.93;;;18.67;;
19193;SDS011;9729;52.296;13.260;2024-02-28T10:19:25;29.47;;;16.87;;
19193;SDS011;9729;52.296;13.260;2024-02-28T10:21:51;31.83;;;16.60;;
19193;SDS011;9729;52.296;13.260;2024-02-28T10:24:19;35.20;;;19.53;;
19193;SDS011;9729;52.296;13.260;2024-02-28T10:26:46;35.70;;;18.90;;
19193;SDS011;9729;52.296;13.260;2024-02-28T10:29:20;35.90;;;18.50;;
19193;SDS011;9729;52.296;13.260;2024-02-28T10:31:46;33.10;;;17.07;;
19193;SDS011;9729;52.296;13.260;2024-02-28T10:34:13;31.70;;;17.07;;
19193;SDS011;9729;52.296;13.260;2024-02-28T10:36:42;32.37;;;17.63;;
19193;SDS011;9729;52.296;13.260;2024-02-28T10:39:10;29.63;;;16.83;;
19193;SDS011;9729;52.296;13.260;2024-02-28T10:41:38;30.30;;;16.43;;
19193;SDS011;9729;52.296;13.260;2024-02-28T10:44:05;30.87;;;17.90;;
19193;SDS011;9729;52.296;13.260;2024-02-28T10:46:32;30.47;;;17.10;;
19193;SDS011;9729;52.296;13.260;2024-02-28T10:48:58;33.23;;;17.43;;
19193;SDS011;9729;52.296;13.260;2024-02-28T10:51:25;28.40;;;16.57;;
19193;SDS011;9729;52.296;13.260;2024-02-28T10:53:54;27.50;;;15.63;;
19193;SDS011;9729;52.296;13.260;2024-02-28T10:56:28;28.47;;;16.57;;
19193;SDS011;9729;52.296;13.260;2024-02-28T10:58:57;25.03;;;14.77;;
19193;SDS011;9729;52.296;13.260;2024-02-28T11:01:25;26.17;;;16.40;;
19193;SDS011;9729;52.296;13.260;2024-02-28T11:03:51;28.13;;;16.03;;
19193;SDS011;9729;52.296;13.260;2024-02-28T11:06:20;23.83;;;14.87;;
19193;SDS011;9729;52.296;13.260;2024-02-28T11:08:48;27.73;;;15.60;;
19193;SDS011;9729;52.296;13.260;2024-02-28T11:11:18;26.37;;;14.50;;
19193;SDS011;9729;52.296;13.260;2024-02-28T11:13:51;24.70;;;15.23;;
19193;SDS011;9729;52.296;13.260;2024-02-28T11:16:25;26.03;;;15.90;;
19193;SDS011;9729;52.296;13.260;2024-02-28T11:18:52;26.00;;;15.63;;
19193;SDS011;9729;52.296;13.260;2024-02-28T11:21:19;21.90;;;14.87;;
19193;SDS011;9729;52.296;13.260;2024-02-28T11:23:45;21.47;;;13.23;;
19193;SDS011;9729;52.296;13.260;2024-02-28T11:26:13;25.60;;;15.67;;
19193;SDS011;9729;52.296;13.260;2024-02-28T11:28:39;22.57;;;14.13;;
19193;SDS011;9729;52.296;13.260;2024-02-28T11:31:05;21.57;;;14.30;;
19193;SDS011;9729;52.296;13.260;2024-02-28T11:33:33;26.83;;;16.23;;
19193;SDS011;9729;52.296;13.260;2024-02-28T11:35:59;24.43;;;14.50;;
19193;SDS011;9729;52.296;13.260;2024-02-28T11:38:28;21.57;;;14.47;;
19193;SDS011;9729;52.296;13.260;2024-02-28T11:40:54;22.97;;;14.03;;
19193;SDS011;9729;52.296;13.260;2024-02-28T11:43:21;21.20;;;13.67;;
19193;SDS011;9729;52.296;13.260;2024-02-28T11:45:47;23.80;;;14.93;;
19193;SDS011;9729;52.296;13.260;2024-02-28T11:48:14;23.27;;;14.10;;
19193;SDS011;9729;52.296;13.260;2024-02-28T11:50:42;23.07;;;14.40;;
19193;SDS011;9729;52.296;13.260;2024-02-28T11:53:08;22.70;;;14.13;;
19193;SDS011;9729;52.296;13.260;2024-02-28T11:55:35;22.07;;;14.67;;
19193;SDS011;9729;52.296;13.260;2024-02-28T11:58:04;24.70;;;15.10;;
19193;SDS011;9729;52.296;13.260;2024-02-28T12:00:33;22.40;;;14.83;;
19193;SDS011;9729;52.296;13.260;2024-02-28T12:03:04;29.03;;;15.50;;
19193;SDS011;9729;52.296;13.260;2024-02-28T12:05:31;23.50;;;15.10;;
19193;SDS011;9729;52.296;13.260;2024-02-28T12:07:58;25.60;;;15.10;;
19193;SDS011;9729;52.296;13.260;2024-02-28T12:10:25;25.50;;;15.70;;
19193;SDS011;9729;52.296;13.260;2024-02-28T12:12:51;23.70;;;15.37;;
19193;SDS011;9729;52.296;13.260;2024-02-28T12:15:18;23.87;;;15.03;;
19193;SDS011;9729;52.296;13.260;2024-02-28T12:17:45;25.87;;;15.70;;
19193;SDS011;9729;52.296;13.260;2024-02-28T12:20:11;23.53;;;15.43;;
19193;SDS011;9729;52.296;13.260;2024-02-28T12:22:38;24.33;;;15.07;;
19193;SDS011;9729;52.296;13.260;2024-02-28T12:25:06;26.30;;;15.73;;
19193;SDS011;9729;52.296;13.260;2024-02-28T12:27:34;27.00;;;16.13;;
19193;SDS011;9729;52.296;13.260;2024-02-28T12:30:00;26.67;;;15.50;;
19193;SDS011;9729;52.296;13.260;2024-02-28T12:32:26;26.10;;;15.80;;
19193;SDS011;9729;52.296;13.260;2024-02-28T12:34:53;23.40;;;15.33;;
19193;SDS011;9729;52.296;13.260;2024-02-28T12:37:19;27.90;;;16.43;;
19193;SDS011;9729;52.296;13.260;2024-02-28T12:39:46;24.70;;;15.77;;
19193;SDS011;9729;52.296;13.260;2024-02-28T12:42:14;27.57;;;15.93;;
19193;SDS011;9729;52.296;13.260;2024-02-28T12:44:40;29.00;;;16.90;;
19193;SDS011;9729;52.296;13.260;2024-02-28T12:47:10;29.07;;;16.53;;
19193;SDS011;9729;52.296;13.260;2024-02-28T12:49:37;24.60;;;15.57;;
19193;SDS011;9729;52.296;13.260;2024-02-28T12:52:03;25.73;;;15.17;;
19193;SDS011;9729;52.296;13.260;2024-02-28T12:54:30;26.37;;;15.33;;
19193;SDS011;9729;52.296;13.260;2024-02-28T12:56:56;22.80;;;14.63;;
19193;SDS011;9729;52.296;13.260;2024-02-28T12:59:25;26.10;;;15.03;;
19193;SDS011;9729;52.296;13.260;2024-02-28T13:01:52;24.00;;;13.63;;
19193;SDS011;9729;52.296;13.260;2024-02-28T13:04:18;26.77;;;15.30;;
19193;SDS011;9729;52.296;13.260;2024-02-28T13:06:44;22.73;;;14.37;;
19193;SDS011;9729;52.296;13.260;2024-02-28T13:09:11;22.50;;;14.37;;
19193;SDS011;9729;52.296;13.260;2024-02-28T13:11:38;23.10;;;14.43;;
19193;SDS011;9729;52.296;13.260;2024-02-28T13:14:04;19.27;;;12.40;;
19193;SDS011;9729;52.296;13.260;2024-02-28T13:16:34;21.13;;;13.47;;
19193;SDS011;9729;52.296;13.260;2024-02-28T13:19:00;21.13;;;13.97;;
19193;SDS011;9729;52.296;13.260;2024-02-28T13:21:27;23.97;;;14.17;;
19193;SDS011;9729;52.296;13.260;2024-02-28T13:23:53;18.53;;;13.13;;
19193;SDS011;9729;52.296;13.260;2024-02-28T13:26:20;21.63;;;12.77;;
19193;SDS011;9729;52.296;13.260;2024-02-28T13:28:46;20.57;;;13.20;;
19193;SDS011;9729;52.296;13.260;2024-02-28T13:31:13;22.10;;;13.50;;
19193;SDS011;9729;52.296;13.260;2024-02-28T13:33:40;17.40;;;12.13;;
19193;SDS011;9729;52.296;13.260;2024-02-28T13:36:07;21.00;;;12.27;;
19193;SDS011;9729;52.296;13.260;2024-02-28T13:38:34;17.43;;;12.20;;
19193;SDS011;9729;52.296;13.260;2024-02-28T13:41:01;21.27;;;12.90;;
19193;SDS011;9729;52.296;13.260;2024-02-28T13:43:27;20.63;;;12.73;;
19193;SDS011;9729;52.296;13.260;2024-02-28T13:45:54;18.43;;;12.50;;
19193;SDS011;9729;52.296;13.260;2024-02-28T13:48:25;18.00;;;12.03;;
19193;SDS011;9729;52.296;13.260;2024-02-28T13:50:54;18.37;;;11.53;;
19193;SDS011;9729;52.296;13.260;2024-02-28T13:53:21;15.73;;;11.70;;
19193;SDS011;9729;52.296;13.260;2024-02-28T13:55:47;20.47;;;12.50;;
19193;SDS011;9729;52.296;13.260;2024-02-28T13:58:14;19.03;;;12.40;;
19193;SDS011;9729;52.296;13.260;2024-02-28T14:00:43;19.73;;;11.87;;
19193;SDS011;9729;52.296;13.260;2024-02-28T14:03:10;19.70;;;12.23;;
19193;SDS011;9729;52.296;13.260;2024-02-28T14:05:37;19.47;;;11.90;;
19193;SDS011;9729;52.296;13.260;2024-02-28T14:08:05;19.13;;;12.47;;
19193;SDS011;9729;52.296;13.260;2024-02-28T14:10:33;21.07;;;12.70;;
19193;SDS011;9729;52.296;13.260;2024-02-28T14:13:00;19.80;;;13.37;;
19193;SDS011;9729;52.296;13.260;2024-02-28T14:15:26;19.27;;;12.97;;
19193;SDS011;9729;52.296;13.260;2024-02-28T14:17:54;18.90;;;11.97;;